Tiempo atmosférico en la estación meteorológica de Agüimes, Las Palmas (306 m.)



Fecha
DESCASC
Temp. máxima en grados centígrados (hora)
DESCASC
Temp. mínima en grados centígrados (hora)
DESCASC
Temp. media en grados centígrados
DESCASC
Racha de viento máxima en m/sg (hora)
DESCASC
Velocidad máxima media en intervalos de 10 minutos(hora)
DESCASC
Precipitaciones diarias en mm
DESCASC
Precipitaciones de 00:00 a 06:00 en mm
DESCASC
Precipitaciones de 06:00 a 12:00 en mm
DESCASC
Precipitaciones de 12:00 a 18:00 en mm
DESCASC
Precipitaciones de 18:00 a 24:00 en mm
DESCASC
16-06-2019 24.1 (13:40) 14.7 (07:10) 19.4 10.83 (17:00) 7.22 (14:50) 0 0 0 0 0
15-06-2019 23.5 (13:00) 15.4 (04:30) 19.4 11.11 (14:40) 7.78 (18:30) 0 0 0 0 0
14-06-2019 21 (11:10) 15 (07:40) 18 11.11 (11:50) 7.78 (20:10) 0 0 0 0 0
13-06-2019 24.7 (13:30) 16.7 (00:00) 20.7 16.11 (01:00) 8.61 (01:00) 0 0 0 0 0
12-06-2019 24.5 (16:50) 17.2 (00:00) 20.9 16.39 (12:40) 10.56 (11:10) 0 0 0 0 0
11-06-2019 24 (17:00) 17.3 (00:00) 20.6 18.61 (15:40) 13.33 (13:30) 0 0 0 0 0
10-06-2019 23.9 (14:30) 16.5 (00:00) 20.2 20 (15:30) 13.61 (17:00) 0 0 0 0 0
09-06-2019 23.4 (15:40) 16.5 (00:00) 19.9 18.89 (22:20) 12.78 (23:20) 0 0 0 0 0
08-06-2019 23.2 (17:10) 17.1 (00:00) 20.2 17.5 (21:30) 11.11 (20:40) 0 0 0 0 0
07-06-2019 24.5 (15:10) 16.3 (00:00) 20.4 17.22 (11:50) 11.67 (16:40) 0 0 0 0 0
06-06-2019 23.1 (14:30) 16.6 (00:00) 19.9 16.39 (15:40) 10.83 (16:20) 0 0 0 0 0
05-06-2019 24.4 (15:00) 17.9 (00:00) 21.1 17.78 (01:50) 12.5 (01:50) 0 0 0 0 0
04-06-2019 29.8 (18:40) 19.5 (00:00) 24.6 17.5 (00:50) 11.67 (00:20) 0 0 0 0 0
03-06-2019 34.8 (15:40) 24.5 (00:00) 29.6 18.06 (22:50) 11.67 (20:20) 0 0 0 0 0
02-06-2019 31.3 (14:40) 18.6 (00:00) 24.9 14.44 (23:59) 9.44 (23:59) 0 0 0 0 0
01-06-2019 25.9 (13:50) 15.6 (00:00) 20.8 8.33 (11:40) 5.28 (11:30) 0 0 0 0 0
31-05-2019 27.2 (15:20) 15.2 (00:00) 21.2 8.89 (15:40) 5.56 (15:40) 0 0 0 0 0
30-05-2019 27.9 (15:30) 14.5 (00:00) 21.2 8.61 (14:20) 5.83 (15:00) 0 0 0 0 0
29-05-2019 27.1 (16:50) 14.6 (00:00) 20.9 9.72 (16:30) 6.39 (16:30) 0 0 0 0 0
28-05-2019 27.4 (15:40) 16.2 (00:00) 21.8 11.67 (17:10) 8.89 (17:10) 0 0 0 0 0
27-05-2019 29.2 (14:20) 18.2 (00:00) 23.7 16.39 (13:00) 11.11 (12:40) 0 0 0 0 0
26-05-2019 29.4 (15:30) 15.1 (00:00) 22.3 12.78 (19:20) 8.61 (19:00) 0 0 0 0 0
25-05-2019 25.6 (16:20) 17.1 (00:00) 21.4 18.06 (08:20) 12.5 (13:40) 0 0 0 0 0
24-05-2019 28.3 (16:10) 22.2 (00:00) 25.3 21.67 (10:30) 14.44 (10:30) 0 0 0 0 0
23-05-2019 26.1 (16:20) 16.9 (00:00) 21.5 21.67 (12:50) 14.17 (12:50) 0 0 0 0 0
22-05-2019 24.3 (15:10) 16.9 (00:00) 20.6 19.17 (17:30) 12.5 (09:40) 0 0 0 0 0
21-05-2019 23.6 (15:40) 15.9 (07:50) 19.8 16.39 (14:30) 11.39 (13:50) 0 0 0 0 0

Gráficas

Temp. máximas Temp. mínimas Temp. medias Precipitaciones Rachas de viento máximas Velocidades máximas media en intervalos de 10 minutos

Datos horarios

Fecha y hora oficial Temperatura (ºC) Velocidad del viento (km/h) Dirección del viento Racha (km/h) Dirección de racha Precipitación (mm) Presión (hPa) Tendencia (hPa) Humedad (%)
2019-06-19 23:00:00 -- -- -- -- -- -- -- -- --
2019-06-19 22:00:00 -- -- -- -- -- -- -- -- --
2019-06-19 21:00:00 -- -- -- -- -- -- -- -- --
2019-06-19 20:00:00 -- -- -- -- -- -- -- -- --
2019-06-19 19:00:00 -- -- -- -- -- -- -- -- --
2019-06-19 18:00:00 -- -- -- -- -- -- -- -- --
2019-06-19 17:00:00 -- -- -- -- -- -- -- -- --
2019-06-19 16:00:00 -- -- -- -- -- -- -- -- --
2019-06-19 15:00:00 -- -- -- -- -- -- -- -- --
2019-06-19 14:00:00 -- -- -- -- -- -- -- -- --
2019-06-19 13:00:00 -- -- -- -- -- -- -- -- --
2019-06-19 12:00:00 -- -- -- -- -- -- -- -- --
2019-06-19 11:00:00 -- -- -- -- -- -- -- -- --
2019-06-19 10:00:00 -- -- -- -- -- -- -- -- --
2019-06-19 09:00:00 -- -- -- -- -- -- -- -- --
2019-06-19 08:00:00 -- -- -- -- -- -- -- -- --
2019-06-19 07:00:00 -- -- -- -- -- -- -- -- --
2019-06-19 06:00:00 -- -- -- -- -- -- -- -- --
2019-06-19 05:00:00 -- -- -- -- -- -- -- -- --
2019-06-19 04:00:00 -- -- -- -- -- -- -- -- --
2019-06-19 03:00:00 -- -- -- -- -- -- -- -- --
2019-06-19 02:00:00 -- -- -- -- -- -- -- -- --
2019-06-19 01:00:00 -- -- -- -- -- -- -- -- --
2019-06-19 00:00:00 -- -- -- -- -- -- -- -- --
2019-06-18 23:00:00 -- -- -- -- -- -- -- -- --
2019-06-18 22:00:00 -- -- -- -- -- -- -- -- --
2019-06-18 21:00:00 -- -- -- -- -- -- -- -- --
2019-06-18 20:00:00 20.7 -- -- -- -- 0 -- -- 81
2019-06-18 19:00:00 -- -- -- -- -- -- -- -- --
2019-06-18 18:00:00 21.7 8 Este 12 Este 0 -- -- 75
2019-06-18 17:00:00 21.3 3 Sur 15 Sur 0 -- -- 76
2019-06-18 16:00:00 21.1 8 Sudeste 13 Sudeste 0 -- -- 77
2019-06-18 15:00:00 21.3 7 Sur 13 Sur 0 -- -- 76
2019-06-18 14:00:00 21.5 10 Sudeste 16 Sudeste 0 -- -- 74
2019-06-18 13:00:00 22.8 6 Este 14 Norte 0 -- -- 69
2019-06-18 12:00:00 22.6 7 Este 17 Nordeste 0 -- -- 69
2019-06-18 11:00:00 23.1 9 Este 20 Este 0 -- -- 67
2019-06-18 10:00:00 22.2 8 Este 17 Nordeste 0 -- -- 69
2019-06-18 09:00:00 20.8 7 Nordeste 13 Nordeste 0 -- -- 71
2019-06-18 08:00:00 17.9 4 Nordeste 6 Nordeste 0 -- -- 83
2019-06-18 07:00:00 16.6 0 Calma 4 Noroeste 0 -- -- 85
2019-06-18 06:00:00 16.5 2 Norte 6 Noroeste 0 -- -- 85
2019-06-18 05:00:00 16.8 3 Norte 3 Norte 0 -- -- 85
2019-06-18 04:00:00 16.9 2 Norte 8 Nordeste 0 -- -- 83
2019-06-18 03:00:00 17.1 5 Nordeste 6 Nordeste 0 -- -- 80
2019-06-18 02:00:00 17.7 3 Norte 5 Nordeste 0 -- -- 81
2019-06-18 01:00:00 18.1 3 Norte 5 Nordeste 0 -- -- 81
2019-06-18 00:00:00 18.3 2 Norte 4 Norte 0 -- -- 80
2019-06-17 23:00:00 18.6 0 Calma 4 Sur 0 -- -- 82
2019-06-17 22:00:00 18.9 3 Sur 10 Sur 0 -- -- 79
2019-06-17 21:00:00 19.5 7 Sur 15 Sur 0 -- -- 78
2019-06-17 20:00:00 20.8 8 Sur 15 Sur 0 -- -- 72
2019-06-17 19:00:00 21.7 11 Sur 21 Sur 0 -- -- 70
2019-06-17 18:00:00 22.7 11 Sur 20 Sur 0 -- -- 66
2019-06-17 17:00:00 23.4 12 Sudeste 23 Sur 0 -- -- 63
2019-06-17 16:00:00 23.3 15 Sur 27 Sur 0 -- -- 63
2019-06-17 15:00:00 23.1 10 Sudeste 28 Sudeste 0 -- -- 61
2019-06-17 14:00:00 23.4 12 Sur 24 Sur 0 -- -- 61
2019-06-17 13:00:00 22.4 10 Sudeste 21 Este 0 -- -- 64
2019-06-17 12:00:00 22.1 7 Este 25 Sur 0 -- -- 65
2019-06-17 11:00:00 21.8 6 Nordeste 17 Sudeste 0 -- -- 63
2019-06-17 10:00:00 20.2 5 Este 9 Sur 0 -- -- 64
2019-06-17 09:00:00 18.6 3 Sur 8 Sur 0 -- -- 70
2019-06-17 08:00:00 16.4 4 Norte 10 Norte 0 -- -- 79
2019-06-17 07:00:00 15.1 9 Norte 11 Norte 0 -- -- 85
2019-06-17 06:00:00 14.9 2 Norte 4 Noroeste 0 -- -- 83
2019-06-17 05:00:00 15.1 0 Calma 7 Norte 0 -- -- 82
2019-06-17 04:00:00 15 8 Norte 10 Norte 0 -- -- 81
2019-06-17 03:00:00 15.5 0 Calma 7 Noroeste 0 -- -- 79
2019-06-17 02:00:00 16 0 Calma 9 Norte 0 -- -- 79
2019-06-17 01:00:00 16.5 5 Oeste 17 Norte 0 -- -- 77
2019-06-17 00:00:00 16.9 11 Norte 21 Norte 0 -- -- 71
2019-06-16 23:00:00 16.9 13 Norte 24 Norte 0 -- -- 74
2019-06-16 22:00:00 17.4 15 Norte 26 Nordeste 0 -- -- 77
2019-06-16 21:00:00 18.1 17 Norte 30 Nordeste 0 -- -- 73
2019-06-16 20:00:00 20 20 Nordeste 33 Nordeste 0 -- -- 64
2019-06-16 19:00:00 21.4 24 Nordeste 37 Nordeste 0 -- -- 60
2019-06-16 18:00:00 22.5 24 Nordeste 36 Nordeste 0 -- -- 58
2019-06-16 17:00:00 23.1 24 Nordeste 39 Nordeste 0 -- -- 58
2019-06-16 16:00:00 23.4 23 Nordeste 36 Nordeste 0 -- -- 56
2019-06-16 15:00:00 23.3 24 Nordeste 36 Nordeste 0 -- -- 57
2019-06-16 14:00:00 23.7 23 Nordeste 32 Este 0 -- -- 55
2019-06-16 13:00:00 22.7 20 Nordeste 33 Nordeste 0 -- -- 59
2019-06-16 12:00:00 22.3 19 Nordeste 33 Nordeste 0 -- -- 61
2019-06-16 11:00:00 21.7 20 Nordeste 27 Nordeste 0 -- -- 63
2019-06-16 10:00:00 20.4 18 Nordeste 26 Nordeste 0 -- -- 66
2019-06-16 09:00:00 19.3 10 Nordeste 17 Este 0 -- -- 63
2019-06-16 08:00:00 16.5 9 Norte 17 Norte 0 -- -- 67
2019-06-16 07:00:00 14.8 11 Norte 19 Norte 0 -- -- 80
2019-06-16 06:00:00 15.1 12 Norte 16 Norte 0 -- -- 78
2019-06-16 05:00:00 15.5 12 Norte 19 Norte 0 -- -- 76
2019-06-16 04:00:00 15.7 12 Norte 19 Norte 0 -- -- 72
2019-06-16 03:00:00 16.2 12 Norte 23 Nordeste 0 -- -- 75
2019-06-16 02:00:00 16.7 14 Norte 24 Norte 0 -- -- 77
2019-06-16 01:00:00 17.2 16 Norte 22 Nordeste 0 -- -- 76
2019-06-16 00:00:00 17.3 15 Norte 29 Nordeste 0 -- -- 75
2019-06-15 23:00:00 17.5 18 Nordeste 28 Nordeste 0 -- -- 74
2019-06-15 22:00:00 17.6 21 Nordeste 33 Nordeste 0 -- -- 73
2019-06-15 21:00:00 17.7 23 Nordeste 36 Nordeste 0 -- -- 72
2019-06-15 20:00:00 18.5 25 Nordeste 35 Nordeste 0 -- -- 71
2019-06-15 19:00:00 19.8 24 Nordeste 37 Nordeste 0 -- -- 66
2019-06-15 18:00:00 21 21 Nordeste 35 Nordeste 0 -- -- 61
2019-06-15 17:00:00 20.6 21 Nordeste 35 Nordeste 0 -- -- 62
2019-06-15 16:00:00 20.3 15 Nordeste 32 Nordeste 0 -- -- 62
2019-06-15 15:00:00 21.2 21 Nordeste 40 Nordeste 0 -- -- 61
2019-06-15 14:00:00 22.9 22 Nordeste 40 Nordeste 0 -- -- 56
2019-06-15 13:00:00 23.5 21 Nordeste 39 Nordeste 0 -- -- 52
2019-06-15 12:00:00 22.3 21 Nordeste 36 Nordeste 0 -- -- 51
2019-06-15 11:00:00 22.1 19 Nordeste 31 Este 0 -- -- 50
2019-06-15 10:00:00 20.1 17 Norte 28 Norte 0 -- -- 54
2019-06-15 09:00:00 17.7 16 Nordeste 27 Nordeste 0 -- -- 65
2019-06-15 08:00:00 16.6 18 Norte 28 Nordeste 0 -- -- 76
2019-06-15 07:00:00 16.4 15 Norte 25 Nordeste 0 -- -- 76
2019-06-15 06:00:00 16.6 15 Nordeste 23 Nordeste 0 -- -- 75
2019-06-15 05:00:00 16.1 9 Norte 23 Norte 0 -- -- 67
2019-06-15 04:00:00 15.8 17 Norte 28 Nordeste 0 -- -- 72
2019-06-15 03:00:00 16.4 18 Norte 27 Norte 0 -- -- 71
2019-06-15 02:00:00 16.6 14 Norte 23 Norte 0 -- -- 66
2019-06-15 01:00:00 16.1 14 Norte 23 Norte 0 -- -- 68
2019-06-15 00:00:00 16.1 14 Norte 21 Norte 0 -- -- 69
2019-06-14 23:00:00 16.6 14 Norte 26 Norte 0 -- -- 74
2019-06-14 22:00:00 17.2 15 Norte 29 Nordeste 0 -- -- 72
2019-06-14 21:00:00 17.6 19 Nordeste 39 Nordeste 0 -- -- 71
2019-06-14 20:00:00 18.3 27 Nordeste 39 Nordeste 0 -- -- 69
2019-06-14 19:00:00 19.1 24 Nordeste 37 Nordeste 0 -- -- 61
2019-06-14 18:00:00 19.2 22 Nordeste 37 Nordeste 0 -- -- 56
2019-06-14 17:00:00 18.9 24 Nordeste 35 Nordeste 0 -- -- 63
2019-06-14 16:00:00 18.9 22 Nordeste 38 Nordeste 0 -- -- 64
2019-06-14 15:00:00 19.6 23 Nordeste 40 Nordeste 0 -- -- 64
2019-06-14 14:00:00 20.2 25 Nordeste 35 Nordeste 0 -- -- 64
2019-06-14 13:00:00 19.4 21 Nordeste 33 Nordeste 0 -- -- 65
2019-06-14 12:00:00 20.2 25 Nordeste 40 Nordeste 0 -- -- 55
2019-06-14 11:00:00 20.8 24 Nordeste 35 Norte 0 -- -- 57
2019-06-14 10:00:00 20.3 19 Nordeste 32 Nordeste 0 -- -- 56
2019-06-14 09:00:00 18.8 18 Norte 33 Nordeste 0 -- -- 56
2019-06-14 08:00:00 16.1 11 Norte 17 Norte 0 -- -- 62
2019-06-14 07:00:00 15.8 12 Norte 22 Norte 0 -- -- 63
2019-06-14 06:00:00 15.9 13 Norte 23 Norte 0 -- -- 70
2019-06-14 05:00:00 16.2 17 Norte 24 Norte 0 -- -- 69
2019-06-14 04:00:00 16.5 17 Norte 24 Norte 0 -- -- 61
2019-06-14 03:00:00 16.6 15 Norte 26 Norte 0 -- -- 60
2019-06-14 02:00:00 17.1 17 Norte 29 Norte 0 -- -- 61
2019-06-14 01:00:00 16.9 15 Norte 28 Norte 0 -- -- 63
2019-06-14 00:00:00 17.2 18 Norte 32 Norte 0 -- -- 61
2019-06-13 23:00:00 18.1 23 Norte 36 Norte 0 -- -- 56
2019-06-13 22:00:00 18.4 24 Norte 41 Norte 0 -- -- 56
2019-06-13 21:00:00 18.6 24 Norte 37 Norte 0 -- -- 60
2019-06-13 20:00:00 19.5 24 Norte 36 Norte 0 -- -- 56
2019-06-13 19:00:00 20.4 12 Noroeste 33 Norte 0 -- -- 54
2019-06-13 18:00:00 21.1 17 Sudoeste 31 Sur 0 -- -- 57
2019-06-13 17:00:00 21.9 16 Sudeste 35 Sudeste 0 -- -- 54
2019-06-13 16:00:00 22.1 14 Sudeste 38 Sur 0 -- -- 47
2019-06-13 15:00:00 23.9 25 Sur 42 Norte 0 -- -- 46
2019-06-13 14:00:00 23.5 27 Norte 42 Norte 0 -- -- 42
2019-06-13 13:00:00 23.6 22 Norte 42 Norte 0 -- -- 44
2019-06-13 12:00:00 22.7 24 Norte 44 Nordeste 0 -- -- 48
2019-06-13 11:00:00 21.9 25 Norte 44 Nordeste 0 -- -- 50
2019-06-13 10:00:00 19.4 24 Norte 40 Norte 0 -- -- 60
2019-06-13 09:00:00 17.7 26 Norte 39 Noroeste 0 -- -- 64
2019-06-13 08:00:00 17.2 22 Norte 43 Norte 0 -- -- 62
2019-06-13 07:00:00 16.7 23 Norte 38 Norte 0 -- -- 68
2019-06-13 06:00:00 17.2 24 Norte 42 Norte 0 -- -- 63
2019-06-13 05:00:00 17.2 22 Norte 40 Norte 0 -- -- 64
2019-06-13 04:00:00 17.7 24 Norte 47 Norte 0 -- -- 62
2019-06-13 03:00:00 17.3 27 Norte 44 Norte 0 -- -- 58
2019-06-13 02:00:00 17.5 24 Norte 53 Noroeste 0 -- -- 60
2019-06-13 01:00:00 17.3 31 Norte 58 Norte 0 -- -- 58
2019-06-13 00:00:00 18 10 Norte 30 Norte 0 -- -- 60
2019-06-12 23:00:00 18.7 10 Norte 32 Norte 0 -- -- 56
2019-06-12 22:00:00 18.7 23 Norte 40 Norte 0 -- -- 61
2019-06-12 21:00:00 18.9 29 Norte 49 Norte 0 -- -- 63
2019-06-12 20:00:00 19.9 31 Norte 51 Norte 0 -- -- 59
2019-06-12 19:00:00 20.6 31 Norte 48 Norte 0 -- -- 60
2019-06-12 18:00:00 22 19 Norte 41 Sudeste 0 -- -- 55
2019-06-12 17:00:00 24 13 Sudoeste 40 Norte 0 -- -- 54
2019-06-12 16:00:00 24.1 26 Norte 44 Norte 0 -- -- 48
2019-06-12 15:00:00 24.1 15 Sudoeste 48 Norte 0 -- -- 57
2019-06-12 14:00:00 22.2 31 Norte 48 Norte 0 -- -- 59
2019-06-12 13:00:00 21.8 30 Norte 59 Norte 0 -- -- 59
2019-06-12 12:00:00 22.1 32 Norte 53 Norte 0 -- -- 62
2019-06-12 11:00:00 20.4 33 Norte 53 Norte 0 -- -- 69
2019-06-12 10:00:00 18.3 31 Norte 45 Norte 0 -- -- 84
2019-06-12 09:00:00 20.1 28 Norte 47 Norte 0 -- -- 69
2019-06-12 08:00:00 18.3 14 Noroeste 47 Norte 0 -- -- 69
2019-06-12 07:00:00 17.7 22 Norte 48 Norte 0 -- -- 74
2019-06-12 06:00:00 18.2 27 Norte 45 Norte 0 -- -- 75
2019-06-12 05:00:00 17.4 25 Norte 41 Norte 0 -- -- 80
2019-06-12 04:00:00 18 21 Norte 42 Norte 0 -- -- 75
2019-06-12 03:00:00 18.2 26 Norte 50 Norte 0 -- -- 76
2019-06-12 02:00:00 18.5 34 Norte 50 Norte 0 -- -- 69
2019-06-12 01:00:00 18.7 27 Norte 49 Norte 0 -- -- 69
2019-06-12 00:00:00 18.6 32 Norte 52 Norte 0 -- -- 72
2019-06-11 23:00:00 19.2 31 Norte 56 Norte 0 -- -- 64
2019-06-11 22:00:00 19.2 30 Norte 52 Norte 0 -- -- 65
2019-06-11 21:00:00 19 34 Norte 57 Norte 0 -- -- 67
2019-06-11 20:00:00 20.3 35 Norte 60 Norte 0 -- -- 61
2019-06-11 19:00:00 21.9 36 Norte 62 Norte 0 -- -- 57
2019-06-11 18:00:00 22.9 37 Norte 57 Norte 0 -- -- 57
2019-06-11 17:00:00 24 34 Norte 62 Norte 0 -- -- 56
2019-06-11 16:00:00 23.3 41 Norte 67 Norte 0 -- -- 56
2019-06-11 15:00:00 23.7 37 Norte 64 Norte 0 -- -- 55
2019-06-11 14:00:00 21.9 40 Norte 66 Nordeste 0 -- -- 67
2019-06-11 13:00:00 22.1 38 Norte 59 Norte 0 -- -- 63
2019-06-11 12:00:00 21.5 46 Norte 65 Norte 0 -- -- 60
2019-06-11 11:00:00 19.7 36 Norte 61 Norte 0 -- -- 63
2019-06-11 10:00:00 18.2 42 Norte 64 Norte 0 -- -- 67
2019-06-11 09:00:00 17.8 42 Norte 61 Norte 0 -- -- 67
2019-06-11 08:00:00 17.9 34 Norte 55 Norte 0 -- -- 67
2019-06-11 07:00:00 17.3 35 Norte 56 Norte 0 -- -- 70
2019-06-11 06:00:00 17.9 29 Norte 56 Norte 0 -- -- 62
2019-06-11 05:00:00 17.6 39 Norte 59 Norte 0 -- -- 66
2019-06-11 04:00:00 17.7 26 Norte 53 Norte 0 -- -- 62
2019-06-11 03:00:00 17.8 33 Norte 54 Norte 0 -- -- 61
2019-06-11 02:00:00 18 37 Norte 63 Norte 0 -- -- 60
2019-06-11 01:00:00 17.8 28 Norte 41 Norte 0 -- -- 59
2019-06-11 00:00:00 18.1 6 Norte 38 Norte 0 -- -- 66
2019-06-10 23:00:00 18.6 20 Norte 59 Norte 0 -- -- 66
2019-06-10 22:00:00 18.6 36 Norte 59 Norte 0 -- -- 61
2019-06-10 21:00:00 18.9 36 Norte 66 Norte 0 -- -- 62
2019-06-10 20:00:00 19.9 40 Norte 69 Norte 0 -- -- 61
2019-06-10 19:00:00 20.9 42 Norte 64 Norte 0 -- -- 56
2019-06-10 18:00:00 21.9 46 Norte 68 Norte 0 -- -- 51
2019-06-10 17:00:00 22.3 49 Norte 70 Norte 0 -- -- 54
2019-06-10 16:00:00 23.5 44 Norte 72 Norte 0 -- -- 50
2019-06-10 15:00:00 23.6 46 Norte 71 Norte 0 -- -- 50
2019-06-10 14:00:00 23.1 48 Norte 66 Norte 0 -- -- 51
2019-06-10 13:00:00 22.7 42 Norte 63 Norte 0 -- -- 55
2019-06-10 12:00:00 21.8 39 Norte 58 Norte 0 -- -- 55
2019-06-10 11:00:00 19.4 35 Norte 62 Norte 0 -- -- 62
2019-06-10 10:00:00 18.5 33 Norte 59 Norte 0 -- -- 65
2019-06-10 09:00:00 18.5 32 Norte 54 Norte 0 -- -- 67
2019-06-10 08:00:00 16.7 34 Norte 55 Norte 0 -- -- 71
2019-06-10 07:00:00 16.7 37 Norte 57 Norte 0 -- -- 69
2019-06-10 06:00:00 16.7 31 Norte 62 Norte 0 -- -- 70
2019-06-10 05:00:00 16.8 34 Norte 62 Norte 0 -- -- 68
2019-06-10 04:00:00 16.9 35 Norte 59 Norte 0 -- -- 69
2019-06-10 03:00:00 17.1 36 Norte 56 Norte 0 -- -- 70
2019-06-10 02:00:00 17 35 Norte 56 Nordeste 0 -- -- 72
2019-06-10 01:00:00 17.2 33 Norte 52 Norte 0 -- -- 72
2019-06-10 00:00:00 17.5 37 Norte 67 Norte 0 -- -- 73
2019-06-09 23:00:00 17.4 40 Norte 68 Norte 0 -- -- 70
2019-06-09 22:00:00 17.5 40 Norte 65 Nordeste 0 -- -- 66
2019-06-09 21:00:00 17.6 42 Norte 63 Norte 0 -- -- 66
2019-06-09 20:00:00 19.1 38 Norte 68 Norte 0 -- -- 61
2019-06-09 19:00:00 20.6 41 Norte 62 Nordeste 0 -- -- 56
2019-06-09 18:00:00 21.8 41 Norte 59 Nordeste 0 -- -- 52
2019-06-09 17:00:00 22.8 40 Norte 64 Norte 0 -- -- 49
2019-06-09 16:00:00 23.2 39 Norte 62 Norte 0 -- -- 47
2019-06-09 15:00:00 23.3 39 Norte 59 Norte 0 -- -- 45
2019-06-09 14:00:00 22.8 39 Norte 64 Norte 0 -- -- 48
2019-06-09 13:00:00 21.9 42 Norte 60 Norte 0 -- -- 52
2019-06-09 12:00:00 21.1 35 Norte 52 Norte 0 -- -- 55
2019-06-09 11:00:00 18.7 31 Norte 49 Norte 0 -- -- 65
2019-06-09 10:00:00 18.4 28 Norte 46 Norte 0 -- -- 61
2019-06-09 09:00:00 17.6 26 Norte 47 Norte 0 -- -- 60
2019-06-09 08:00:00 16.7 30 Norte 42 Nordeste 0 -- -- 70
2019-06-09 07:00:00 16.5 20 Norte 40 Norte 0 -- -- 63
2019-06-09 06:00:00 16.8 29 Norte 42 Norte 0 -- -- 67
2019-06-09 05:00:00 17 26 Norte 45 Norte 0 -- -- 66
2019-06-09 04:00:00 17 25 Norte 44 Norte 0 -- -- 65
2019-06-09 03:00:00 16.5 32 Norte 54 Norte 0 -- -- 66
2019-06-09 02:00:00 16.6 32 Norte 49 Norte 0 -- -- 68
2019-06-09 01:00:00 16.9 28 Norte 51 Norte 0 -- -- 69
2019-06-09 00:00:00 17.2 37 Norte 54 Norte 0 -- -- 67
2019-06-08 23:00:00 17.4 30 Norte 53 Norte 0 -- -- 70
2019-06-08 22:00:00 17.5 33 Norte 63 Norte 0 -- -- 69
2019-06-08 21:00:00 17.9 33 Norte 55 Norte 0 -- -- 68
2019-06-08 20:00:00 19.5 38 Norte 58 Norte 0 -- -- 64
2019-06-08 19:00:00 21.2 34 Norte 55 Nordeste 0 -- -- 59
2019-06-08 18:00:00 22.5 38 Norte 55 Norte 0 -- -- 53
2019-06-08 17:00:00 23 35 Norte 49 Nordeste 0 -- -- 52
2019-06-08 16:00:00 22 32 Norte 50 Norte 0 -- -- 59
2019-06-08 15:00:00 22 31 Norte 48 Nordeste 0 -- -- 62
2019-06-08 14:00:00 22 32 Norte 50 Norte 0 -- -- 65
2019-06-08 13:00:00 22.3 32 Nordeste 46 Nordeste 0 -- -- 65
2019-06-08 12:00:00 21.9 30 Nordeste 45 Nordeste 0 -- -- 67
2019-06-08 11:00:00 20 23 Norte 39 Nordeste 0 -- -- 68
2019-06-08 10:00:00 17.8 25 Norte 37 Norte 0 -- -- 80
2019-06-08 09:00:00 18.3 21 Nordeste 37 Nordeste 0 -- -- 81
2019-06-08 08:00:00 17.9 21 Norte 34 Norte 0 -- -- 76
2019-06-08 07:00:00 17.7 24 Norte 44 Norte 0 -- -- 78
2019-06-08 06:00:00 17.7 29 Norte 43 Norte 0 -- -- 80
2019-06-08 05:00:00 18 29 Norte 45 Norte 0 -- -- 78
2019-06-08 04:00:00 18.2 23 Nordeste 40 Norte 0 -- -- 83
2019-06-08 03:00:00 18.3 27 Norte 39 Norte 0 -- -- 81
2019-06-08 02:00:00 19 21 Norte 35 Norte 0 -- -- 72
2019-06-08 01:00:00 19.6 13 Norte 50 Norte 0 -- -- 65
2019-06-08 00:00:00 19.6 35 Norte 53 Norte 0 -- -- 65
2019-06-07 23:00:00 19.7 39 Norte 52 Norte 0 -- -- 65
2019-06-07 22:00:00 19.8 29 Norte 45 Norte 0 -- -- 65
2019-06-07 21:00:00 20.3 27 Norte 46 Norte 0 -- -- 63
2019-06-07 20:00:00 21.4 24 Norte 43 Nordeste 0 -- -- 60
2019-06-07 19:00:00 22.7 33 Norte 49 Norte 0 -- -- 55
2019-06-07 18:00:00 23.2 39 Norte 60 Nordeste 0 -- -- 53
2019-06-07 17:00:00 23.9 39 Norte 61 Norte 0 -- -- 51
2019-06-07 16:00:00 24.2 35 Norte 58 Norte 0 -- -- 53
2019-06-07 15:00:00 24.2 34 Nordeste 62 Nordeste 0 -- -- 53
2019-06-07 14:00:00 23.6 37 Norte 55 Norte 0 -- -- 53
2019-06-07 13:00:00 23.6 31 Norte 60 Norte 0 -- -- 50
2019-06-07 12:00:00 21.7 36 Norte 62 Norte 0 -- -- 55
2019-06-07 11:00:00 20.8 34 Norte 56 Norte 0 -- -- 58
2019-06-07 10:00:00 18.9 32 Norte 55 Norte 0 -- -- 64
2019-06-07 09:00:00 19 27 Norte 44 Norte 0 -- -- 60
2019-06-07 08:00:00 17.7 13 Norte 37 Norte 0 -- -- 62
2019-06-07 07:00:00 16.7 22 Norte 36 Norte 0 -- -- 63
2019-06-07 06:00:00 17 13 Norte 38 Norte 0 -- -- 63
2019-06-07 05:00:00 16.9 12 Norte 39 Norte 0 -- -- 64
2019-06-07 04:00:00 17.1 21 Norte 54 Norte 0 -- -- 62
2019-06-07 03:00:00 17.3 26 Norte 44 Norte 0 -- -- 55
2019-06-07 02:00:00 17.5 21 Norte 44 Norte 0 -- -- 63
2019-06-07 01:00:00 17.2 22 Norte 51 Nordeste 0 -- -- 61
2019-06-07 00:00:00 17.1 31 Norte 47 Norte 0 -- -- 62
2019-06-06 23:00:00 17.1 25 Norte 54 Norte 0 -- -- 62
2019-06-06 22:00:00 17.2 31 Norte 48 Norte 0 -- -- 63
2019-06-06 21:00:00 17.6 32 Norte 51 Norte 0 -- -- 60
2019-06-06 20:00:00 18.8 35 Norte 50 Norte 0 -- -- 57
2019-06-06 19:00:00 20.7 30 Norte 47 Norte 0 -- -- 51
2019-06-06 18:00:00 21.8 32 Norte 52 Norte 0 -- -- 50
2019-06-06 17:00:00 21.8 35 Norte 55 Norte 0 -- -- 54
2019-06-06 16:00:00 21.9 36 Norte 59 Norte 0 -- -- 54
2019-06-06 15:00:00 22.6 37 Norte 55 Nordeste 0 -- -- 49
2019-06-06 14:00:00 22.4 39 Norte 58 Norte 0 -- -- 48
2019-06-06 13:00:00 22.3 33 Norte 53 Norte 0 -- -- 49
2019-06-06 12:00:00 20.7 35 Norte 53 Norte 0 -- -- 53
2019-06-06 11:00:00 18 32 Norte 48 Norte 0 -- -- 67
2019-06-06 10:00:00 20.2 21 Norte 41 Norte 0 -- -- 53
2019-06-06 09:00:00 18.2 28 Norte 40 Norte 0 -- -- 61
2019-06-06 08:00:00 17 23 Norte 39 Norte 0 -- -- 67
2019-06-06 07:00:00 16.8 26 Norte 42 Nordeste 0 -- -- 71
2019-06-06 06:00:00 16.8 23 Norte 40 Norte 0 -- -- 73
2019-06-06 05:00:00 16.8 26 Norte 42 Norte 0 -- -- 71
2019-06-06 04:00:00 17 26 Norte 36 Norte 0 -- -- 76
2019-06-06 03:00:00 17.1 21 Norte 35 Nordeste 0 -- -- 76
2019-06-06 02:00:00 17.2 22 Norte 36 Norte 0 -- -- 75
2019-06-06 01:00:00 17.3 23 Norte 39 Norte 0 -- -- 82
2019-06-06 00:00:00 17.9 23 Norte 41 Norte 0 -- -- 78
2019-06-05 23:00:00 18.2 24 Norte 40 Norte 0 -- -- 75
2019-06-05 22:00:00 18.2 23 Norte 41 Norte 0 -- -- 80
2019-06-05 21:00:00 19.2 28 Norte 48 Norte 0 -- -- 71
2019-06-05 20:00:00 19.9 36 Norte 51 Norte 0 -- -- 64
2019-06-05 19:00:00 21.5 37 Norte 54 Norte 0 -- -- 56
2019-06-05 18:00:00 21.9 37 Norte 58 Norte 0 -- -- 59
2019-06-05 17:00:00 23.7 39 Norte 58 Norte 0 -- -- 56
2019-06-05 16:00:00 23.6 31 Norte 54 Norte 0 -- -- 54
2019-06-05 15:00:00 24.4 35 Norte 62 Nordeste 0 -- -- 54
2019-06-05 14:00:00 24 37 Nordeste 59 Nordeste 0 -- -- 60
2019-06-05 13:00:00 24.1 34 Norte 56 Norte 0 -- -- 57
2019-06-05 12:00:00 21.3 35 Norte 50 Norte 0 -- -- 65
2019-06-05 11:00:00 21.3 36 Norte 53 Norte 0 -- -- 65
2019-06-05 10:00:00 21.1 31 Norte 56 Norte 0 -- -- 65
2019-06-05 09:00:00 20.7 36 Norte 55 Norte 0 -- -- 65
2019-06-05 08:00:00 19.4 27 Norte 50 Norte 0 -- -- 69
2019-06-05 07:00:00 19.4 30 Norte 57 Norte 0 -- -- 68
2019-06-05 06:00:00 19.3 38 Norte 57 Norte 0 -- -- 67
2019-06-05 05:00:00 19.6 42 Norte 63 Norte 0 -- -- 67
2019-06-05 04:00:00 18.8 36 Norte 55 Norte 0 -- -- 74
2019-06-05 03:00:00 18.7 29 Norte 55 Norte 0 -- -- 71
2019-06-05 02:00:00 18.8 39 Norte 64 Norte 0 -- -- 74
2019-06-05 01:00:00 18.8 37 Norte 59 Norte 0 -- -- 72
2019-06-05 00:00:00 19.5 40 Norte 54 Norte 0 -- -- 65
2019-06-04 23:00:00 19.9 27 Norte 42 Norte 0 -- -- 60
2019-06-04 22:00:00 20.6 24 Nordeste 36 Nordeste 0 -- -- 53
2019-06-04 21:00:00 24.4 13 Norte 30 Norte 0 -- -- 37
2019-06-04 20:00:00 26 9 Sudoeste 19 Oeste 0 -- -- 43
2019-06-04 19:00:00 28.7 9 Oeste 39 Norte 0 -- -- 36
2019-06-04 18:00:00 29.4 27 Norte 50 Nordeste 0 -- -- 26
2019-06-04 17:00:00 27.8 34 Nordeste 51 Nordeste 0 -- -- 36
2019-06-04 16:00:00 28.2 39 Nordeste 54 Nordeste 0 -- -- 40
2019-06-04 15:00:00 28.9 38 Nordeste 55 Nordeste 0 -- -- 34
2019-06-04 14:00:00 28.6 38 Nordeste 57 Nordeste 0 -- -- 34
2019-06-04 13:00:00 29.2 34 Nordeste 55 Nordeste 0 -- -- 26
2019-06-04 12:00:00 28.2 36 Norte 54 Norte 0 -- -- 24
2019-06-04 11:00:00 26.7 37 Nordeste 57 Nordeste 0 -- -- 29
2019-06-04 10:00:00 27 32 Nordeste 51 Norte 0 -- -- 29
2019-06-04 09:00:00 26.8 29 Nordeste 50 Norte 0 -- -- 23
2019-06-04 08:00:00 25.6 31 Norte 51 Norte 0 -- -- 26
2019-06-04 07:00:00 24.9 30 Norte 42 Norte 0 -- -- 23
2019-06-04 06:00:00 24.8 24 Nordeste 41 Nordeste 0 -- -- 23
2019-06-04 05:00:00 28 23 Norte 48 Norte 0 -- -- 19
2019-06-04 04:00:00 28.2 32 Norte 51 Norte 0 -- -- 20
2019-06-04 03:00:00 26.8 29 Norte 50 Norte 0 -- -- 23
2019-06-04 02:00:00 28.1 34 Norte 57 Norte 0 -- -- 22
2019-06-04 01:00:00 28.4 39 Norte 63 Norte 0 -- -- 22
2019-06-04 00:00:00 28.5 36 Norte 64 Norte 0 -- -- 21
2019-06-03 23:00:00 28.7 36 Norte 65 Norte 0 -- -- 20
2019-06-03 22:00:00 28.5 38 Norte 62 Norte 0 -- -- 21
2019-06-03 21:00:00 28.6 41 Norte 62 Norte 0 -- -- 22
2019-06-03 20:00:00 29.7 38 Norte 58 Norte 0 -- -- 22
2019-06-03 19:00:00 31.4 33 Norte 57 Norte 0 -- -- 21
2019-06-03 18:00:00 32.6 31 Norte 57 Norte 0 -- -- 18
2019-06-03 17:00:00 33.4 37 Norte 58 Norte 0 -- -- 17
2019-06-03 16:00:00 34.2 37 Norte 55 Nordeste 0 -- -- 15
2019-06-03 15:00:00 34.1 34 Nordeste 54 Nordeste 0 -- -- 19
2019-06-03 14:00:00 33.4 33 Nordeste 51 Nordeste 0 -- -- 23
2019-06-03 13:00:00 31.7 33 Nordeste 48 Nordeste 0 -- -- 31
2019-06-03 12:00:00 33.1 28 Nordeste 44 Nordeste 0 -- -- 26
2019-06-03 11:00:00 31.6 31 Nordeste 41 Nordeste 0 -- -- 23
2019-06-03 10:00:00 32.1 26 Norte 43 Norte 0 -- -- 15
2019-06-03 09:00:00 28.3 33 Norte 49 Norte 0 -- -- 21
2019-06-03 08:00:00 27.9 27 Norte 44 Norte 0 -- -- 18
2019-06-03 07:00:00 28.4 26 Norte 40 Norte 0 -- -- 19
2019-06-03 06:00:00 28.5 26 Norte 39 Norte 0 -- -- 20
2019-06-03 05:00:00 27.3 28 Norte 40 Norte 0 -- -- 20
2019-06-03 04:00:00 28.1 17 Nordeste 38 Norte 0 -- -- 22
2019-06-03 03:00:00 24.5 8 Sudoeste 39 Noroeste 0 -- -- 27
2019-06-03 02:00:00 28.6 24 Norte 42 Norte 0 -- -- 20
2019-06-03 01:00:00 28.3 28 Norte 48 Norte 0 -- -- 24
2019-06-03 00:00:00 28.2 34 Norte 52 Norte 0 -- -- 24
2019-06-02 23:00:00 28.2 26 Norte 47 Norte 0 -- -- 25
2019-06-02 22:00:00 27.8 27 Norte 43 Norte 0 -- -- 25
2019-06-02 21:00:00 21.9 5 Sudoeste 24 Sudeste 0 -- -- 75
2019-06-02 20:00:00 24.1 8 Sur 16 Sudeste 0 -- -- 65
2019-06-02 19:00:00 26.7 9 Sur 18 Sur 0 -- -- 55
2019-06-02 18:00:00 27.3 8 Sur 20 Sur 0 -- -- 55
2019-06-02 17:00:00 27.6 12 Sur 27 Sur 0 -- -- 56
2019-06-02 16:00:00 29.3 14 Sur 25 Sur 0 -- -- 53
2019-06-02 15:00:00 30.7 14 Sur 23 Sudoeste 0 -- -- 49
2019-06-02 14:00:00 30.7 13 Este 19 Este 0 -- -- 47
2019-06-02 13:00:00 30.7 14 Nordeste 21 Este 0 -- -- 44
2019-06-02 12:00:00 28.7 8 Este 14 Este 0 -- -- 47
2019-06-02 11:00:00 26.4 6 Sur 12 Sur 0 -- -- 59
2019-06-02 10:00:00 25 5 Este 16 Nordeste 0 -- -- 63
2019-06-02 09:00:00 21.6 6 Sur 21 Norte 0 -- -- 74
2019-06-02 08:00:00 18.6 4 Oeste 16 Sur 0 -- -- 86
2019-06-02 07:00:00 19.9 4 Sur 15 Nordeste 0 -- -- 74
2019-06-02 06:00:00 20.9 4 Nordeste 13 Nordeste 0 -- -- 62
2019-06-02 05:00:00 23.1 6 Norte 17 Norte 0 -- -- 42
2019-06-02 04:00:00 22.4 13 Norte 19 Norte 0 -- -- 42
2019-06-02 03:00:00 20.4 6 Noroeste 13 Norte 0 -- -- 54
2019-06-02 02:00:00 23.7 6 Norte 20 Norte 0 -- -- 43
2019-06-02 01:00:00 23.3 10 Norte 19 Norte 0 -- -- 50
2019-06-02 00:00:00 18.6 8 Norte 16 Nordeste 0 -- -- 78
2019-06-01 23:00:00 18.2 7 Nordeste 13 Nordeste 0 -- -- 85
2019-06-01 22:00:00 18.5 2 Sudeste 6 Nordeste 0 -- -- 85
2019-06-01 21:00:00 19 4 Sur 17 Sur 0 -- -- 83
2019-06-01 20:00:00 20.7 13 Sur 24 Sur 0 -- -- 77
2019-06-01 19:00:00 22.6 14 Sur 27 Sur 0 -- -- 69
2019-06-01 18:00:00 24.6 19 Sur 30 Sudoeste 0 -- -- 63
2019-06-01 17:00:00 25.2 9 Sur 21 Este 0 -- -- 61
2019-06-01 16:00:00 25.2 14 Este 27 Este 0 -- -- 60
2019-06-01 15:00:00 25.7 16 Este 27 Nordeste 0 -- -- 59
2019-06-01 14:00:00 25.6 18 Nordeste 28 Nordeste 0 -- -- 60
2019-06-01 13:00:00 25.3 19 Nordeste 30 Nordeste 0 -- -- 60
2019-06-01 12:00:00 24.5 17 Nordeste 30 Nordeste 0 -- -- 62
2019-06-01 11:00:00 23.6 17 Nordeste 27 Nordeste 0 -- -- 65
2019-06-01 10:00:00 21 8 Norte 19 Nordeste 0 -- -- 74
2019-06-01 09:00:00 18.6 6 Sur 8 Sudeste 0 -- -- 84
2019-06-01 08:00:00 16.5 2 Sudoeste 8 Sudoeste 0 -- -- 90
2019-06-01 07:00:00 15.7 5 Nordeste 9 Nordeste 0 -- -- 89
2019-06-01 06:00:00 16 3 Noroeste 6 Nordeste 0 -- -- 88
2019-06-01 05:00:00 16.3 0 Calma 10 Sudoeste 0 -- -- 87
2019-06-01 04:00:00 16.6 6 Sudoeste 13 Norte 0 -- -- 85
2019-06-01 03:00:00 17 10 Norte 19 Nordeste 0 -- -- 82
2019-06-01 02:00:00 17.9 9 Nordeste 14 Nordeste 0 -- -- 83
2019-06-01 01:00:00 18 2 Este 9 Sudeste 0 -- -- 86
2019-06-01 00:00:00 18 4 Sur 8 Sur 0 -- -- 90
2019-05-31 23:00:00 17.9 3 Sur 8 Sur 0 -- -- 87
2019-05-31 22:00:00 18.4 4 Sur 10 Sur 0 -- -- 85
2019-05-31 21:00:00 19.5 6 Sur 10 Sur 0 -- -- 79
2019-05-31 20:00:00 21.4 7 Sur 15 Sur 0 -- -- 71
2019-05-31 19:00:00 23.2 11 Sur 26 Sur 0 -- -- 65
2019-05-31 18:00:00 25.2 17 Sur 27 Sudoeste 0 -- -- 59
2019-05-31 17:00:00 26.5 18 Sur 28 Sur 0 -- -- 54
2019-05-31 16:00:00 26.8 18 Sur 32 Sur 0 -- -- 54
2019-05-31 15:00:00 26.9 14 Sur 30 Sur 0 -- -- 54
2019-05-31 14:00:00 26.4 10 Sur 21 Sur 0 -- -- 57
2019-05-31 13:00:00 24 11 Sur 19 Este 0 -- -- 64
2019-05-31 12:00:00 22 10 Sudeste 19 Sudeste 0 -- -- 70
2019-05-31 11:00:00 21.5 11 Sudeste 17 Sudeste 0 -- -- 72
2019-05-31 10:00:00 20.5 5 Sudeste 9 Sudeste 0 -- -- 74
2019-05-31 09:00:00 17.7 4 Sur 7 Oeste 0 -- -- 89
2019-05-31 08:00:00 16.1 0 Calma 4 Oeste 0 -- -- 93
2019-05-31 07:00:00 15.3 0 Calma 4 Sur 0 -- -- 92
2019-05-31 06:00:00 15.5 3 Sudoeste 7 Sudoeste 0 -- -- 91
2019-05-31 05:00:00 15.5 0 Calma 8 Oeste 0 -- -- 89
2019-05-31 04:00:00 15.5 3 Sur 5 Sudoeste 0 -- -- 86
2019-05-31 03:00:00 15.5 3 Norte 5 Noroeste 0 -- -- 87
2019-05-31 02:00:00 16.1 2 Oeste 3 Oeste 0 -- -- 89
2019-05-31 01:00:00 16.5 0 Calma 3 Nordeste 0 -- -- 88
2019-05-31 00:00:00 16.7 4 Nordeste 6 Nordeste 0 -- -- 87
2019-05-30 23:00:00 17.4 3 Sudeste 4 Sudeste 0 -- -- 86
2019-05-30 22:00:00 18 4 Sur 9 Sur 0 -- -- 83
2019-05-30 21:00:00 19.1 6 Sur 14 Sur 0 -- -- 77
2019-05-30 20:00:00 21.2 10 Sur 23 Sudoeste 0 -- -- 68
2019-05-30 19:00:00 23.7 18 Sur 28 Sudoeste 0 -- -- 60
2019-05-30 18:00:00 25.9 12 Este 24 Este 0 -- -- 51
2019-05-30 17:00:00 26.3 13 Este 26 Este 0 -- -- 51
2019-05-30 16:00:00 27.1 16 Este 29 Nordeste 0 -- -- 49
2019-05-30 15:00:00 27.1 21 Nordeste 31 Nordeste 0 -- -- 50
2019-05-30 14:00:00 25.7 14 Nordeste 27 Sur 0 -- -- 54
2019-05-30 13:00:00 24.6 13 Sur 27 Sur 0 -- -- 57
2019-05-30 12:00:00 23.4 12 Sur 22 Sur 0 -- -- 60
2019-05-30 11:00:00 21.4 7 Sudeste 13 Sur 0 -- -- 66
2019-05-30 10:00:00 19.6 6 Sur 10 Sudeste 0 -- -- 73
2019-05-30 09:00:00 18 3 Sudeste 6 Sudoeste 0 -- -- 82
2019-05-30 08:00:00 15.6 0 Calma 4 Oeste 0 -- -- 90
2019-05-30 07:00:00 14.8 0 Calma 4 Noroeste 0 -- -- 90
2019-05-30 06:00:00 14.6 0 Calma 3 Noroeste 0 -- -- 88
2019-05-30 05:00:00 14.9 2 Noroeste 4 Nordeste 0 -- -- 87
2019-05-30 04:00:00 15.1 3 Norte 4 Nordeste 0 -- -- 83
2019-05-30 03:00:00 15.3 0 Calma 3 Nordeste 0 -- -- 85
2019-05-30 02:00:00 15.4 0 Calma 5 Nordeste 0 -- -- 79
2019-05-30 01:00:00 15.8 -- -- -- -- 0 -- -- 77
2019-05-30 00:00:00 16.5 0 Calma 4 Sur 0 -- -- 76
2019-05-29 23:00:00 17.2 3 Sur 9 Sur 0 -- -- 76
2019-05-29 22:00:00 18.2 0 Calma 8 Este 0 -- -- 71
2019-05-29 21:00:00 19.8 4 Sudeste 15 Sudeste 0 -- -- 66
2019-05-29 20:00:00 23 7 Este 14 Nordeste 0 -- -- 56
2019-05-29 19:00:00 25.5 9 Nordeste 27 Nordeste 0 -- -- 50
2019-05-29 18:00:00 26.8 16 Nordeste 29 Nordeste 0 -- -- 47
2019-05-29 17:00:00 27 21 Nordeste 35 Nordeste 0 -- -- 46
2019-05-29 16:00:00 25.4 14 Este 26 Sur 0 -- -- 51
2019-05-29 15:00:00 25 13 Sur 26 Sur 0 -- -- 57
2019-05-29 14:00:00 24.3 20 Sur 33 Sur 0 -- -- 58
2019-05-29 13:00:00 24.5 17 Sur 29 Sur 0 -- -- 58
2019-05-29 12:00:00 24.3 9 Este 24 Sudeste 0 -- -- 55
2019-05-29 11:00:00 22.3 5 Sudoeste 13 Sur 0 -- -- 63
2019-05-29 10:00:00 20 6 Sudeste 13 Sur 0 -- -- 71
2019-05-29 09:00:00 18.4 3 Sudeste 7 Sudeste 0 -- -- 78
2019-05-29 08:00:00 16.2 4 Norte 6 Nordeste 0 -- -- 89
2019-05-29 07:00:00 14.8 0 Calma 5 Sudoeste 0 -- -- 89
2019-05-29 06:00:00 15 0 Calma 5 Norte 0 -- -- 89
2019-05-29 05:00:00 15.1 3 Norte 5 Norte 0 -- -- 87
2019-05-29 04:00:00 15.9 3 Sudoeste 5 Norte 0 -- -- 88
2019-05-29 03:00:00 16 3 Noroeste 4 Oeste 0 -- -- 85
2019-05-29 02:00:00 16.3 3 Noroeste 4 Noroeste 0 -- -- 83
2019-05-29 01:00:00 16.8 0 Calma 5 Norte 0 -- -- 81
2019-05-29 00:00:00 17.2 0 Calma 5 Sur 0 -- -- 78
2019-05-28 23:00:00 17.6 5 Norte 12 Nordeste 0 -- -- 76
2019-05-28 22:00:00 18.6 3 Sudeste 17 Sudoeste 0 -- -- 76
2019-05-28 21:00:00 20 13 Sudoeste 27 Norte 0 -- -- 72
2019-05-28 20:00:00 22.4 9 Nordeste 31 Nordeste 0 -- -- 62
2019-05-28 19:00:00 25.1 19 Nordeste 42 Nordeste 0 -- -- 54
2019-05-28 18:00:00 24.2 31 Nordeste 42 Nordeste 0 -- -- 58
2019-05-28 17:00:00 25.5 27 Norte 42 Nordeste 0 -- -- 54
2019-05-28 16:00:00 26.9 24 Nordeste 38 Norte 0 -- -- 50
2019-05-28 15:00:00 27 17 Sudoeste 33 Nordeste 0 -- -- 51
2019-05-28 14:00:00 26.6 16 Nordeste 36 Nordeste 0 -- -- 50
2019-05-28 13:00:00 25.4 12 Oeste 39 Este 0 -- -- 54
2019-05-28 12:00:00 26.4 27 Nordeste 40 Nordeste 0 -- -- 51
2019-05-28 11:00:00 24.7 24 Nordeste 34 Nordeste 0 -- -- 55
2019-05-28 10:00:00 21.7 7 Sur 14 Sur 0 -- -- 69
2019-05-28 09:00:00 19.3 7 Sudoeste 13 Sudoeste 0 -- -- 80
2019-05-28 08:00:00 17.1 0 Calma 6 Oeste 0 -- -- 91
2019-05-28 07:00:00 16.6 3 Sur 8 Sudoeste 0 -- -- 92
2019-05-28 06:00:00 16.2 4 Oeste 10 Sur 0 -- -- 90
2019-05-28 05:00:00 16.9 8 Sudoeste 13 Sudoeste 0 -- -- 85
2019-05-28 04:00:00 18.2 4 Sudoeste 22 Nordeste 0 -- -- 72
2019-05-28 03:00:00 17.9 8 Nordeste 20 Norte 0 -- -- 73
2019-05-28 02:00:00 17 6 Nordeste 11 Norte 0 -- -- 88
2019-05-28 01:00:00 17.9 0 Calma 8 Sur 0 -- -- 88
2019-05-28 00:00:00 18.2 5 Sur 10 Sudoeste 0 -- -- 87
2019-05-27 23:00:00 18.7 4 Sur 19 Sur 0 -- -- 86
2019-05-27 22:00:00 19.4 13 Sur 21 Sur 0 -- -- 79
2019-05-27 21:00:00 21.7 5 Sur 33 Norte 0 -- -- 62
2019-05-27 20:00:00 26.2 25 Norte 51 Noroeste 0 -- -- 29
2019-05-27 19:00:00 26.8 36 Norte 54 Nordeste 0 -- -- 27
2019-05-27 18:00:00 27.5 37 Norte 57 Norte 0 -- -- 30
2019-05-27 17:00:00 28.3 32 Norte 48 Nordeste 0 -- -- 32
2019-05-27 16:00:00 29.1 28 Nordeste 58 Nordeste 0 -- -- 26
2019-05-27 15:00:00 28.8 35 Norte 54 Nordeste 0 -- -- 26
2019-05-27 14:00:00 28.8 37 Norte 55 Norte 0 -- -- 26
2019-05-27 13:00:00 28.3 39 Norte 59 Norte 0 -- -- 26
2019-05-27 12:00:00 27.7 35 Norte 51 Norte 0 -- -- 28
2019-05-27 11:00:00 27.1 30 Norte 46 Nordeste 0 -- -- 28
2019-05-27 10:00:00 25.9 28 Norte 42 Norte 0 -- -- 31
2019-05-27 09:00:00 24.3 18 Nordeste 31 Norte 0 -- -- 37
2019-05-27 08:00:00 22.4 20 Norte 34 Norte 0 -- -- 38
2019-05-27 07:00:00 21.7 21 Norte 40 Norte 0 -- -- 39
2019-05-27 06:00:00 21.9 24 Norte 43 Norte 0 -- -- 38
2019-05-27 05:00:00 22.8 28 Norte 41 Norte 0 -- -- 33
2019-05-27 04:00:00 22.7 24 Norte 39 Norte 0 -- -- 34
2019-05-27 03:00:00 21.9 9 Nordeste 36 Norte 0 -- -- 64
2019-05-27 02:00:00 23 18 Norte 35 Norte 0 -- -- 38
2019-05-27 01:00:00 22.5 17 Norte 34 Norte 0 -- -- 36
2019-05-27 00:00:00 22.5 17 Norte 43 Norte 0 -- -- 37
2019-05-26 23:00:00 22.9 26 Norte 39 Norte 0 -- -- 35
2019-05-26 22:00:00 22.4 20 Norte 42 Norte 0 -- -- 37
2019-05-26 21:00:00 22.6 25 Norte 39 Nordeste 0 -- -- 39
2019-05-26 20:00:00 24.1 27 Norte 46 Norte 0 -- -- 37
2019-05-26 19:00:00 25.9 31 Norte 45 Norte 0 -- -- 32
2019-05-26 18:00:00 27.9 24 Norte 40 Norte 0 -- -- 32
2019-05-26 17:00:00 28.3 24 Norte 38 Nordeste 0 -- -- 35
2019-05-26 16:00:00 28.8 25 Norte 36 Norte 0 -- -- 36
2019-05-26 15:00:00 28.1 23 Norte 43 Nordeste 0 -- -- 33
2019-05-26 14:00:00 29 24 Nordeste 36 Nordeste 0 -- -- 40
2019-05-26 13:00:00 27.6 20 Norte 35 Nordeste 0 -- -- 41
2019-05-26 12:00:00 27.4 22 Nordeste 32 Nordeste 0 -- -- 44
2019-05-26 11:00:00 26.6 16 Norte 33 Norte 0 -- -- 35
2019-05-26 10:00:00 25 25 Norte 38 Norte 0 -- -- 33
2019-05-26 09:00:00 23.8 21 Norte 34 Norte 0 -- -- 33
2019-05-26 08:00:00 22.4 20 Norte 39 Norte 0 -- -- 33
2019-05-26 07:00:00 20.7 18 Norte 29 Norte 0 -- -- 39
2019-05-26 06:00:00 15.3 3 Sudeste 9 Sudoeste 0 -- -- 84
2019-05-26 05:00:00 15.3 6 Oeste 12 Sudoeste 0 -- -- 87
2019-05-26 04:00:00 15.1 3 Oeste 8 Noroeste 0 -- -- 86
2019-05-26 03:00:00 15.6 4 Norte 13 Norte 0 -- -- 82
2019-05-26 02:00:00 16 2 Nordeste 12 Norte 0 -- -- 78
2019-05-26 01:00:00 16.6 3 Nordeste 13 Nordeste 0 -- -- 74
2019-05-26 00:00:00 17.2 13 Norte 22 Norte 0 -- -- 67
2019-05-25 23:00:00 17.6 4 Nordeste 20 Nordeste 0 -- -- 71
2019-05-25 22:00:00 18 5 Sur 21 Norte 0 -- -- 72
2019-05-25 21:00:00 18.8 18 Norte 39 Norte 0 -- -- 64
2019-05-25 20:00:00 20.8 29 Norte 54 Norte 0 -- -- 55
2019-05-25 19:00:00 23 34 Norte 53 Nordeste 0 -- -- 54
2019-05-25 18:00:00 23.8 35 Norte 50 Nordeste 0 -- -- 52
2019-05-25 17:00:00 25 30 Norte 49 Norte 0 -- -- 50
2019-05-25 16:00:00 25.1 28 Norte 54 Nordeste 0 -- -- 53
2019-05-25 15:00:00 23.9 36 Norte 60 Norte 0 -- -- 59
2019-05-25 14:00:00 23.4 41 Nordeste 62 Nordeste 0 -- -- 59
2019-05-25 13:00:00 22.9 41 Norte 60 Nordeste 0 -- -- 62
2019-05-25 12:00:00 22.7 40 Norte 61 Norte 0 -- -- 60
2019-05-25 11:00:00 21.4 39 Norte 58 Norte 0 -- -- 65
2019-05-25 10:00:00 21.1 41 Norte 63 Nordeste 0 -- -- 64
2019-05-25 09:00:00 19.1 39 Nordeste 65 Nordeste 0 -- -- 70
2019-05-25 08:00:00 17.4 39 Norte 58 Nordeste 0 -- -- 75
2019-05-25 07:00:00 17.6 36 Nordeste 64 Norte 0 -- -- 72
2019-05-25 06:00:00 17.6 41 Norte 56 Norte 0 -- -- 70
2019-05-25 05:00:00 17.8 37 Norte 64 Norte 0 -- -- 65
2019-05-25 04:00:00 20 36 Norte 51 Norte 0 -- -- 44
2019-05-25 03:00:00 21.1 33 Norte 49 Norte 0 -- -- 25
2019-05-25 02:00:00 21.5 35 Norte 56 Nordeste 0 -- -- 25
2019-05-25 01:00:00 21.9 33 Norte 52 Norte 0 -- -- 24
2019-05-25 00:00:00 24.3 36 Norte 66 Norte 0 -- -- 25
2019-05-24 23:00:00 23.5 37 Norte 59 Norte 0 -- -- 32
2019-05-24 22:00:00 23.5 37 Norte 62 Nordeste 0 -- -- 18
2019-05-24 21:00:00 24.6 35 Norte 57 Norte 0 -- -- 21
2019-05-24 20:00:00 24.3 38 Norte 57 Norte 0 -- -- 28
2019-05-24 19:00:00 24.8 42 Norte 68 Norte 0 -- -- 36
2019-05-24 18:00:00 26.2 43 Nordeste 64 Norte 0 -- -- 34
2019-05-24 17:00:00 27.1 46 Norte 62 Norte 0 -- -- 33
2019-05-24 16:00:00 27.7 43 Norte 62 Norte 0 -- -- 33
2019-05-24 15:00:00 27.6 48 Norte 64 Norte 0 -- -- 33
2019-05-24 14:00:00 27.4 44 Norte 66 Nordeste 0 -- -- 35
2019-05-24 13:00:00 26 48 Norte 75 Norte 0 -- -- 37
2019-05-24 12:00:00 25 50 Norte 73 Nordeste 0 -- -- 37
2019-05-24 11:00:00 25 46 Norte 78 Norte 0 -- -- 36
2019-05-24 10:00:00 24 49 Norte 74 Norte 0 -- -- 36
2019-05-24 09:00:00 22.6 45 Norte 66 Norte 0 -- -- 39
2019-05-24 08:00:00 22.8 41 Norte 64 Norte 0 -- -- 31
2019-05-24 07:00:00 23.3 33 Norte 56 Norte 0 -- -- 25
2019-05-24 06:00:00 23.3 19 Norte 44 Norte 0 -- -- 22
2019-05-24 05:00:00 24.3 35 Norte 54 Norte 0 -- -- 18
2019-05-24 04:00:00 24.2 37 Norte 63 Norte 0 -- -- 17
2019-05-24 03:00:00 23 40 Norte 61 Norte 0 -- -- 19
2019-05-24 02:00:00 23.5 40 Norte 68 Norte 0 -- -- 17
2019-05-24 01:00:00 23 38 Norte 62 Norte 0 -- -- 19
2019-05-24 00:00:00 22.6 41 Norte 69 Norte 0 -- -- 23
2019-05-23 23:00:00 20.4 35 Norte 53 Norte 0 -- -- 36
2019-05-23 22:00:00 20.4 24 Norte 48 Norte 0 -- -- 41
2019-05-23 21:00:00 21.5 30 Norte 65 Noroeste 0 -- -- 32
2019-05-23 20:00:00 22.2 27 Norte 46 Norte 0 -- -- 42
2019-05-23 19:00:00 24.9 27 Norte 50 Norte 0 -- -- 23
2019-05-23 18:00:00 24.9 30 Norte 59 Norte 0 -- -- 32
2019-05-23 17:00:00 24.5 39 Norte 63 Norte 0 -- -- 43
2019-05-23 16:00:00 25.4 32 Norte 61 Norte 0 -- -- 43
2019-05-23 15:00:00 23.9 39 Norte 67 Norte 0 -- -- 49
2019-05-23 14:00:00 23.8 42 Norte 71 Norte 0 -- -- 50
2019-05-23 13:00:00 23.1 48 Norte 78 Norte 0 -- -- 55
2019-05-23 12:00:00 22.7 45 Norte 69 Norte 0 -- -- 52
2019-05-23 11:00:00 22 36 Norte 66 Norte 0 -- -- 51
2019-05-23 10:00:00 19.9 43 Norte 72 Norte 0 -- -- 57
2019-05-23 09:00:00 18.9 40 Norte 71 Norte 0 -- -- 59
2019-05-23 08:00:00 17.6 45 Norte 66 Norte 0 -- -- 67
2019-05-23 07:00:00 17.4 32 Norte 63 Noroeste 0 -- -- 65
2019-05-23 06:00:00 17.1 32 Norte 73 Norte 0 -- -- 67
2019-05-23 05:00:00 17.1 37 Norte 62 Norte 0 -- -- 65
2019-05-23 04:00:00 17.4 37 Norte 55 Norte 0 -- -- 64
2019-05-23 03:00:00 18.2 37 Norte 70 Norte 0 -- -- 65
2019-05-23 02:00:00 17.7 35 Norte 63 Norte 0 -- -- 64
2019-05-23 01:00:00 18.3 32 Norte 65 Norte 0 -- -- 65
2019-05-23 00:00:00 18.2 39 Norte 68 Norte 0 -- -- 63
2019-05-22 23:00:00 18.3 34 Norte 59 Norte 0 -- -- 62
2019-05-22 22:00:00 18.3 32 Norte 62 Norte 0 -- -- 63
2019-05-22 21:00:00 18.8 33 Norte 55 Norte 0 -- -- 65
2019-05-22 20:00:00 20.1 37 Norte 67 Norte 0 -- -- 63
2019-05-22 19:00:00 21.4 39 Norte 59 Norte 0 -- -- 61
2019-05-22 18:00:00 21.9 35 Norte 69 Norte 0 -- -- 57
2019-05-22 17:00:00 22.7 38 Norte 66 Norte 0 -- -- 56
2019-05-22 16:00:00 24 37 Norte 59 Norte 0 -- -- 52
2019-05-22 15:00:00 23.9 36 Norte 57 Nordeste 0 -- -- 52
2019-05-22 14:00:00 24.1 36 Nordeste 52 Norte 0 -- -- 53
2019-05-22 13:00:00 24 32 Norte 52 Norte 0 -- -- 46
2019-05-22 12:00:00 23 33 Nordeste 55 Norte 0 -- -- 57
2019-05-22 11:00:00 21.2 36 Norte 53 Nordeste 0 -- -- 63
2019-05-22 10:00:00 19.5 35 Norte 62 Norte 0 -- -- 67
2019-05-22 09:00:00 17.9 35 Norte 58 Norte 0 -- -- 74
2019-05-22 08:00:00 17.7 32 Norte 53 Norte 0 -- -- 72
2019-05-22 07:00:00 17.5 22 Norte 56 Norte 0 -- -- 71
2019-05-22 06:00:00 17.7 37 Norte 59 Norte 0 -- -- 66
2019-05-22 05:00:00 17.5 35 Norte 57 Norte 0 -- -- 65
2019-05-22 04:00:00 16.9 32 Norte 55 Norte 0 -- -- 72
2019-05-22 03:00:00 17.8 21 Norte 50 Norte 0 -- -- 68
2019-05-22 02:00:00 17.8 22 Norte 52 Norte 0 -- -- 65
2019-05-22 01:00:00 17.6 28 Norte 48 Norte 0 -- -- 70
2019-05-22 00:00:00 17.8 25 Norte 49 Norte 0 -- -- 64
2019-05-21 23:00:00 17.3 27 Norte 46 Norte 0 -- -- 69
2019-05-21 22:00:00 17.6 23 Norte 50 Norte 0 -- -- 70
2019-05-21 21:00:00 17.9 31 Norte 50 Norte 0 -- -- 67
2019-05-21 20:00:00 18.8 33 Norte 56 Norte 0 -- -- 64
2019-05-21 19:00:00 20.3 36 Norte 54 Nordeste 0 -- -- 59
2019-05-21 18:00:00 21.9 36 Norte 54 Nordeste 0 -- -- 54
2019-05-21 17:00:00 22.4 36 Norte 53 Norte 0 -- -- 51
2019-05-21 16:00:00 23.2 38 Norte 54 Norte 0 -- -- 51
2019-05-21 15:00:00 23.5 37 Norte 59 Norte 0 -- -- 50
2019-05-21 14:00:00 23 36 Norte 58 Nordeste 0 -- -- 51
2019-05-21 13:00:00 22.2 37 Nordeste 55 Nordeste 0 -- -- 56
2019-05-21 12:00:00 21.2 36 Nordeste 52 Nordeste 0 -- -- 60
2019-05-21 11:00:00 19.7 36 Norte 49 Nordeste 0 -- -- 66
2019-05-21 10:00:00 18.4 25 Norte 45 Norte 0 -- -- 70
2019-05-21 09:00:00 17.3 25 Norte 50 Nordeste 0 -- -- 73
2019-05-21 08:00:00 16 28 Norte 50 Norte 0 -- -- 78
2019-05-21 07:00:00 16.2 32 Norte 48 Norte 0 -- -- 78
2019-05-21 06:00:00 16.6 33 Norte 52 Norte 0 -- -- 72
2019-05-21 05:00:00 16.8 29 Norte 46 Norte 0 -- -- 72
2019-05-21 04:00:00 16.5 13 Noroeste 55 Norte 0 -- -- 67
2019-05-21 03:00:00 16.6 27 Norte 44 Norte 0 -- -- 66
2019-05-21 02:00:00 16.8 24 Norte 41 Norte 0 -- -- 66
2019-05-21 01:00:00 17 27 Norte 40 Norte 0 -- -- 62
2019-05-21 00:00:00 17.3 27 Norte 49 Norte 0 -- -- 62